Bal Harbour, Florida
Current Conditions -  °F | °C
As of 7:53 PM on Sunday 23 Nov 2014 (Local Time) from KOPF Reporting Station
Overcast Overcast  
Wind Chill: 79°   Ceiling: 3300
Heat Index: 82°   Visibility: 10mi
Dew Point: 74°   Wind: 7mph
Humidity: 84%   Direction: 150°SSE
Pressure: 29.97"   Gusts: NA
Location:  25.882°N, 80.1292°W
Report Text: KOPF 240053Z 15006KT 10SM SCT020 OVC033 26/23 A2997 RMK AO2 SLP149 T02610233
Loading
Personal Weather Stations






























Interactive Weather Map New forecast layout! Learn more

10-Day Weather Forecast

Advertisements
Track Severe Weather on mobile